Time;durP1;ratioP1;P1;durP2;ratioP2;P2;SDS_P1;SDS_P2;PMS_P1;PMS_P2;Temp;Humidity;BMP_temperature;BMP_pressure;BME280_temperature;BME280_humidity;BME280_pressure;Samples;Min_cycle;Max_cycle;Signal;HPM_P1;HPM_P2
2024/04/25 00:00:25;;;;;;;5.75;0.98;;;7.90;99.90;;;;;;4445643;26;20325;-68
2024/04/25 00:02:26;;;;;;;7.45;0.90;;;7.90;99.90;;;;;;4458784;26;20010;-66
2024/04/25 00:04:27;;;;;;;2.72;1.10;;;7.90;99.90;;;;;;4448335;26;20460;-65
2024/04/25 00:06:27;;;;;;;3.75;1.20;;;7.90;99.90;;;;;;4443775;26;20000;-59
2024/04/25 00:08:28;;;;;;;1.63;0.80;;;7.90;99.90;;;;;;4449860;26;20816;-69
2024/04/25 00:10:29;;;;;;;2.15;1.08;;;7.90;99.90;;;;;;4418931;26;20001;-65
2024/04/25 00:12:30;;;;;;;4.10;1.42;;;7.90;99.90;;;;;;4448892;26;20352;-60
2024/04/25 00:14:31;;;;;;;2.78;1.40;;;7.90;99.90;;;;;;4470340;26;20015;-68
2024/04/25 00:16:31;;;;;;;2.72;1.30;;;7.90;99.90;;;;;;4449233;26;20044;-60
2024/04/25 00:18:32;;;;;;;3.42;1.10;;;7.90;99.90;;;;;;4468803;26;20076;-68
2024/04/25 00:20:33;;;;;;;1.98;0.95;;;7.90;99.90;;;;;;4459067;26;19999;-68
2024/04/25 00:22:34;;;;;;;5.28;1.27;;;7.90;99.90;;;;;;4451883;26;20047;-65
2024/04/25 00:24:34;;;;;;;4.15;1.30;;;7.90;99.90;;;;;;4419975;26;20505;-67
2024/04/25 00:26:35;;;;;;;2.28;0.75;;;7.90;99.90;;;;;;4452028;26;20592;-63
2024/04/25 00:28:36;;;;;;;2.65;1.30;;;7.90;99.90;;;;;;4449887;26;20354;-68
2024/04/25 00:30:37;;;;;;;6.35;1.50;;;7.90;99.90;;;;;;4436782;26;20024;-65
2024/04/25 00:32:37;;;;;;;2.60;1.00;;;7.90;99.90;;;;;;4457991;26;20007;-67
2024/04/25 00:34:38;;;;;;;4.18;1.20;;;7.90;99.90;;;;;;4450622;26;20422;-67
2024/04/25 00:36:38;;;;;;;4.20;1.08;;;8.00;99.90;;;;;;4447688;26;20011;-64
2024/04/25 00:38:39;;;;;;;3.28;1.00;;;8.00;99.90;;;;;;4454697;26;20478;-68
2024/04/25 00:40:40;;;;;;;4.55;1.55;;;8.00;99.90;;;;;;4451942;26;20051;-68
2024/04/25 00:42:41;;;;;;;3.85;1.60;;;8.00;99.90;;;;;;4457168;26;20023;-65
2024/04/25 00:44:41;;;;;;;2.33;1.40;;;8.00;99.90;;;;;;4455917;26;20375;-65
2024/04/25 00:46:43;;;;;;;3.78;1.02;;;8.00;99.90;;;;;;4448813;26;20015;-68
2024/04/25 00:48:45;;;;;;;1.55;1.15;;;8.00;99.90;;;;;;4458904;26;20032;-68
2024/04/25 00:50:47;;;;;;;6.53;1.58;;;8.00;99.90;;;;;;4452763;26;20024;-60
2024/04/25 00:52:47;;;;;;;2.88;1.20;;;8.00;99.90;;;;;;4455805;26;20451;-69
2024/04/25 00:54:49;;;;;;;4.93;1.60;;;8.00;99.90;;;;;;4450816;26;20020;-65
2024/04/25 00:56:50;;;;;;;3.03;1.20;;;8.00;99.90;;;;;;4453958;26;20000;-68
2024/04/25 00:58:57;;;;;;;4.40;1.80;;;7.90;99.90;;;;;;4436192;26;20459;-60
2024/04/25 01:01:00;;;;;;;3.38;1.40;;;8.00;99.90;;;;;;4457331;26;20369;-65
2024/04/25 01:03:01;;;;;;;1.90;1.05;;;7.90;99.90;;;;;;4465086;26;20004;-68
2024/04/25 01:05:03;;;;;;;6.20;1.70;;;7.90;99.90;;;;;;4455118;26;20074;-66
2024/04/25 01:07:04;;;;;;;7.68;1.77;;;7.90;99.90;;;;;;4418959;26;20005;-59
2024/04/25 01:09:04;;;;;;;3.78;1.30;;;7.90;99.90;;;;;;4427536;26;20052;-64
2024/04/25 01:11:05;;;;;;;6.18;1.70;;;7.80;99.90;;;;;;4435876;26;20015;-67
2024/04/25 01:13:06;;;;;;;8.32;1.83;;;7.90;99.90;;;;;;4452573;26;20488;-68
2024/04/25 01:15:07;;;;;;;3.35;1.15;;;7.90;99.90;;;;;;4448743;26;20358;-68
2024/04/25 01:17:07;;;;;;;2.58;1.27;;;7.90;99.90;;;;;;4449178;26;20329;-68
2024/04/25 01:19:08;;;;;;;4.88;1.55;;;7.90;99.90;;;;;;4447781;26;20008;-59
2024/04/25 01:21:09;;;;;;;2.72;1.40;;;7.90;99.90;;;;;;4453635;26;20016;-66
2024/04/25 01:23:11;;;;;;;2.55;1.38;;;7.90;99.90;;;;;;4453638;26;20016;-68
2024/04/25 01:25:13;;;;;;;4.78;1.63;;;7.90;99.90;;;;;;4449846;26;20019;-68
2024/04/25 01:27:14;;;;;;;2.97;1.08;;;7.90;99.90;;;;;;4438479;26;20349;-59
2024/04/25 01:29:16;;;;;;;5.88;1.33;;;7.90;99.90;;;;;;4423258;26;20019;-68
2024/04/25 01:31:18;;;;;;;1.73;1.20;;;7.90;99.90;;;;;;4464972;26;20364;-60
2024/04/25 01:33:19;;;;;;;4.47;1.67;;;7.90;99.90;;;;;;4461002;26;20010;-60
2024/04/25 01:35:21;;;;;;;2.92;1.60;;;7.90;99.90;;;;;;4465056;26;20092;-59
2024/04/25 01:37:22;;;;;;;3.20;1.73;;;7.90;99.90;;;;;;4423473;26;20016;-69
2024/04/25 01:39:26;;;;;;;2.33;1.40;;;7.90;99.90;;;;;;4403303;26;20036;-59
2024/04/25 01:41:27;;;;;;;4.25;1.83;;;7.80;99.90;;;;;;4451659;26;20078;-67
2024/04/25 01:43:27;;;;;;;5.18;2.00;;;7.80;99.90;;;;;;4465632;26;20492;-60
2024/04/25 01:45:28;;;;;;;4.07;2.08;;;7.80;99.90;;;;;;4470642;26;20031;-60
2024/04/25 01:47:29;;;;;;;4.38;1.92;;;7.80;99.90;;;;;;4419994;26;20013;-68
2024/04/25 01:49:29;;;;;;;3.92;1.77;;;7.70;99.90;;;;;;4452053;26;20008;-67
2024/04/25 01:51:31;;;;;;;3.50;1.58;;;7.70;99.90;;;;;;4395559;26;20524;-69
2024/04/25 01:53:32;;;;;;;1.88;1.63;;;7.70;99.90;;;;;;4431180;26;20014;-68
2024/04/25 01:55:32;;;;;;;5.43;2.10;;;7.70;99.90;;;;;;4450368;26;20004;-65
2024/04/25 01:57:33;;;;;;;4.93;1.98;;;7.70;99.90;;;;;;4455179;26;20384;-69
2024/04/25 01:59:34;;;;;;;3.75;2.28;;;7.60;99.90;;;;;;4465276;26;20542;-68
2024/04/25 02:01:35;;;;;;;5.93;2.40;;;7.60;99.90;;;;;;4448904;26;20000;-67
2024/04/25 02:03:36;;;;;;;4.70;2.13;;;7.60;99.90;;;;;;4452278;26;20003;-65
2024/04/25 02:05:37;;;;;;;5.07;2.13;;;7.60;99.90;;;;;;4464497;26;20014;-68
2024/04/25 02:07:38;;;;;;;6.18;2.50;;;7.50;99.90;;;;;;4450329;26;21002;-64
2024/04/25 02:09:38;;;;;;;6.63;2.47;;;7.60;99.90;;;;;;4458804;26;20491;-67
2024/04/25 02:11:39;;;;;;;4.30;2.05;;;7.50;99.90;;;;;;4456795;26;20004;-68
2024/04/25 02:13:40;;;;;;;3.30;2.20;;;7.50;99.90;;;;;;4451089;26;20792;-65
2024/04/25 02:15:41;;;;;;;5.57;2.40;;;7.60;99.90;;;;;;4451861;26;20016;-67
2024/04/25 02:17:42;;;;;;;5.80;2.50;;;7.50;99.90;;;;;;4462697;26;20097;-67
2024/04/25 02:19:42;;;;;;;5.85;2.53;;;7.50;99.90;;;;;;4427159;26;20037;-68
2024/04/25 02:26:22;;;;;;;7.45;2.53;;;7.40;99.90;;;;;;4442544;26;20012;-59
2024/04/25 02:28:23;;;;;;;10.05;2.50;;;7.40;99.90;;;;;;4419806;26;20431;-68
2024/04/25 02:30:23;;;;;;;3.90;2.13;;;7.40;99.90;;;;;;4455353;26;20028;-65
2024/04/25 02:32:24;;;;;;;7.07;2.50;;;7.30;99.90;;;;;;4425484;26;20012;-68
2024/04/25 02:34:27;;;;;;;4.15;1.92;;;7.40;99.90;;;;;;4399741;26;20091;-68
2024/04/25 02:36:31;;;;;;;5.38;2.17;;;7.30;99.90;;;;;;4458342;26;20097;-67
2024/04/25 02:38:32;;;;;;;6.13;2.42;;;7.30;99.90;;;;;;4463664;26;20023;-65
2024/04/25 02:40:32;;;;;;;5.78;2.30;;;7.30;99.90;;;;;;4460217;26;20036;-65
2024/04/25 02:42:33;;;;;;;4.40;1.90;;;7.30;99.90;;;;;;4425612;26;20008;-67
2024/04/25 02:44:33;;;;;;;6.00;2.38;;;7.30;99.90;;;;;;4456147;26;20003;-64
2024/04/25 02:46:34;;;;;;;4.72;2.15;;;7.30;99.90;;;;;;4425176;26;20078;-65
2024/04/25 02:48:35;;;;;;;9.70;3.10;;;7.30;99.90;;;;;;4454953;26;20005;-68
2024/04/25 02:50:35;;;;;;;8.40;3.03;;;7.30;99.90;;;;;;4456829;26;20015;-68
2024/04/25 02:52:38;;;;;;;5.22;2.30;;;7.30;99.90;;;;;;4455704;26;20459;-61
2024/04/25 02:54:38;;;;;;;4.88;2.22;;;7.20;99.90;;;;;;4449469;26;20027;-65
2024/04/25 02:56:39;;;;;;;8.13;2.65;;;7.20;99.90;;;;;;4461750;26;20003;-64
2024/04/25 02:58:40;;;;;;;4.88;2.05;;;7.20;99.90;;;;;;4450266;26;20063;-67
2024/04/25 03:00:41;;;;;;;4.80;2.35;;;7.20;99.90;;;;;;4429182;26;20004;-68
2024/04/25 03:02:41;;;;;;;5.78;2.33;;;7.20;99.90;;;;;;4454155;26;20382;-68
2024/04/25 03:04:42;;;;;;;7.70;2.63;;;7.10;99.90;;;;;;4457577;26;20027;-59
2024/04/25 03:06:43;;;;;;;7.93;2.53;;;7.10;99.90;;;;;;4452910;26;21622;-65
2024/04/25 03:08:44;;;;;;;7.57;2.70;;;7.20;99.90;;;;;;4444732;26;20008;-59
2024/04/25 03:10:44;;;;;;;4.90;2.33;;;7.10;99.90;;;;;;4444112;26;20020;-68
2024/04/25 03:12:45;;;;;;;5.78;2.60;;;7.10;99.90;;;;;;4457130;26;20008;-68
2024/04/25 03:14:46;;;;;;;7.53;2.53;;;7.00;99.90;;;;;;4449483;26;20464;-60
2024/04/25 03:16:50;;;;;;;7.38;2.22;;;7.00;99.90;;;;;;4453699;26;20016;-65
2024/04/25 03:18:50;;;;;;;6.65;2.20;;;7.00;99.90;;;;;;4450791;26;20008;-68
2024/04/25 03:20:51;;;;;;;8.90;2.70;;;7.00;99.90;;;;;;4448283;26;20044;-59
2024/04/25 03:22:52;;;;;;;5.45;2.15;;;7.00;99.90;;;;;;4473835;26;20555;-64
2024/04/25 03:24:52;;;;;;;5.55;1.92;;;7.00;99.90;;;;;;4449570;26;19995;-65
2024/04/25 03:26:53;;;;;;;8.18;2.88;;;7.00;99.90;;;;;;4461440;26;20015;-65
2024/04/25 03:28:54;;;;;;;7.43;2.75;;;6.90;99.90;;;;;;4433060;26;20103;-68
2024/04/25 03:30:54;;;;;;;7.15;2.88;;;6.90;99.90;;;;;;4455360;26;20475;-68
2024/04/25 03:32:55;;;;;;;10.57;2.80;;;6.90;99.90;;;;;;4460691;26;20003;-68
2024/04/25 03:34:56;;;;;;;10.75;2.60;;;6.90;99.90;;;;;;4467082;26;20057;-68
2024/04/25 03:36:57;;;;;;;6.90;2.42;;;6.90;99.90;;;;;;4460297;26;20011;-60
2024/04/25 03:38:58;;;;;;;5.38;2.33;;;6.90;99.90;;;;;;4454278;26;20021;-67
2024/04/25 03:40:59;;;;;;;7.85;2.00;;;6.80;99.90;;;;;;4459410;26;20000;-66
2024/04/25 03:42:59;;;;;;;5.55;2.00;;;6.90;99.90;;;;;;4466290;26;20464;-68
2024/04/25 03:45:00;;;;;;;6.00;2.25;;;6.90;99.90;;;;;;4443409;26;20110;-65
2024/04/25 03:47:01;;;;;;;11.00;2.50;;;6.90;99.90;;;;;;4450857;26;20419;-68
2024/04/25 03:49:02;;;;;;;11.68;2.60;;;6.90;99.90;;;;;;4450761;26;20482;-68
2024/04/25 03:51:03;;;;;;;6.97;2.40;;;6.90;99.90;;;;;;4453247;26;20007;-59
2024/04/25 03:53:04;;;;;;;10.55;2.30;;;6.80;99.90;;;;;;4447482;26;20012;-68
2024/04/25 03:55:05;;;;;;;8.75;2.47;;;6.80;99.90;;;;;;4455105;26;20379;-68
2024/04/25 03:57:06;;;;;;;8.27;2.60;;;6.80;99.90;;;;;;4447827;26;20348;-65
2024/04/25 03:59:07;;;;;;;7.00;2.13;;;6.90;99.90;;;;;;4455534;26;20017;-66
2024/04/25 04:01:07;;;;;;;7.82;2.22;;;6.80;99.90;;;;;;4447568;26;20449;-65
2024/04/25 04:03:08;;;;;;;8.02;2.45;;;6.80;99.90;;;;;;4426102;26;20035;-67
2024/04/25 04:05:09;;;;;;;6.45;2.38;;;6.90;99.90;;;;;;4436848;26;20012;-65
2024/04/25 04:07:10;;;;;;;6.95;2.58;;;6.80;99.90;;;;;;4411921;26;20013;-67
2024/04/25 04:09:11;;;;;;;8.90;2.70;;;6.80;99.90;;;;;;4454613;26;20032;-60
2024/04/25 04:11:12;;;;;;;7.65;2.25;;;6.80;99.90;;;;;;4430056;26;20445;-65
2024/04/25 04:13:13;;;;;;;6.30;2.22;;;6.80;99.90;;;;;;4465235;26;20011;-60
2024/04/25 04:15:13;;;;;;;9.90;2.17;;;6.80;99.90;;;;;;4448190;26;20004;-65
2024/04/25 04:17:14;;;;;;;4.82;1.77;;;6.80;99.90;;;;;;4447038;26;20008;-68
2024/04/25 04:19:17;;;;;;;5.20;2.35;;;6.80;99.90;;;;;;4466755;26;20007;-68
2024/04/25 04:21:17;;;;;;;6.75;2.05;;;6.80;99.90;;;;;;4470205;26;20007;-65
2024/04/25 04:23:18;;;;;;;13.80;3.45;;;6.80;99.90;;;;;;4432869;26;20016;-70
2024/04/25 04:25:19;;;;;;;11.35;2.50;;;6.90;99.90;;;;;;4456834;26;20019;-67
2024/04/25 04:27:19;;;;;;;7.57;2.55;;;6.80;99.90;;;;;;4454395;26;20460;-60
2024/04/25 04:29:20;;;;;;;7.15;2.47;;;6.80;99.90;;;;;;4452663;26;20048;-59
2024/04/25 04:31:21;;;;;;;7.05;2.35;;;6.80;99.90;;;;;;4450642;26;20472;-68
2024/04/25 04:33:22;;;;;;;6.30;2.00;;;6.90;99.90;;;;;;4448153;26;20001;-59
2024/04/25 04:35:23;;;;;;;5.63;2.10;;;6.80;99.90;;;;;;4436832;26;20553;-69
2024/04/25 04:37:24;;;;;;;5.32;1.48;;;6.80;99.90;;;;;;4450438;26;20093;-60
2024/04/25 04:39:24;;;;;;;4.20;1.98;;;6.90;99.90;;;;;;4449860;26;20430;-68
2024/04/25 04:41:25;;;;;;;7.07;2.33;;;6.90;99.90;;;;;;4423414;26;20034;-68
2024/04/25 04:43:26;;;;;;;4.63;1.80;;;6.90;99.90;;;;;;4454741;26;20014;-68
2024/04/25 04:45:27;;;;;;;7.15;2.40;;;6.90;99.90;;;;;;4446650;26;20023;-60
2024/04/25 04:47:27;;;;;;;6.90;1.98;;;6.90;99.90;;;;;;4455946;26;20015;-59
2024/04/25 04:49:28;;;;;;;3.95;2.00;;;6.90;99.90;;;;;;4459748;26;20024;-67
2024/04/25 04:51:29;;;;;;;6.38;1.92;;;6.90;99.90;;;;;;4420224;26;20863;-66
2024/04/25 04:53:36;;;;;;;4.57;1.58;;;7.00;99.90;;;;;;4440369;26;20044;-63
2024/04/25 04:55:37;;;;;;;4.68;1.75;;;7.00;99.90;;;;;;4445434;26;20080;-63
2024/04/25 04:57:37;;;;;;;5.28;1.85;;;7.00;99.90;;;;;;4459139;26;20008;-63
2024/04/25 04:59:38;;;;;;;5.85;1.90;;;7.00;99.90;;;;;;4429270;26;20015;-64
2024/04/25 05:01:39;;;;;;;3.50;1.38;;;7.00;99.90;;;;;;4440765;26;20004;-65
2024/04/25 05:03:41;;;;;;;7.43;2.13;;;7.00;99.90;;;;;;4465315;26;20014;-64
2024/04/25 05:05:41;;;;;;;3.80;1.98;;;7.10;99.90;;;;;;4451030;26;20380;-65
2024/04/25 05:07:42;;;;;;;3.72;1.60;;;7.10;99.90;;;;;;4447680;26;20031;-65
2024/04/25 05:09:43;;;;;;;4.72;1.92;;;7.10;99.90;;;;;;4448006;26;20008;-65
2024/04/25 05:11:44;;;;;;;5.32;1.98;;;7.10;99.90;;;;;;4440547;26;20012;-65
2024/04/25 05:13:44;;;;;;;5.05;2.00;;;7.10;99.90;;;;;;4455186;26;20083;-64
2024/04/25 05:15:45;;;;;;;3.38;1.67;;;7.10;99.90;;;;;;4415837;26;20029;-65
2024/04/25 05:17:46;;;;;;;3.53;1.63;;;7.10;99.90;;;;;;4453102;26;20390;-65
2024/04/25 05:19:47;;;;;;;5.53;1.92;;;7.10;99.90;;;;;;4446501;26;20015;-65
2024/04/25 05:21:50;;;;;;;4.75;2.20;;;7.10;99.90;;;;;;4451512;26;20355;-64
2024/04/25 05:23:51;;;;;;;5.43;1.90;;;7.10;99.90;;;;;;4440657;26;20016;-65
2024/04/25 05:25:52;;;;;;;5.55;1.80;;;7.20;99.90;;;;;;4430394;26;20076;-64
2024/04/25 05:27:54;;;;;;;3.65;1.90;;;7.20;99.90;;;;;;4452598;26;20020;-65
2024/04/25 05:29:55;;;;;;;4.50;1.90;;;7.30;99.90;;;;;;4456019;26;20537;-64
2024/04/25 05:31:57;;;;;;;5.60;1.40;;;7.30;99.90;;;;;;4419393;26;20098;-65
2024/04/25 05:33:58;;;;;;;3.70;1.80;;;7.30;99.90;;;;;;4445765;26;20077;-65
2024/04/25 05:36:01;;;;;;;5.70;1.70;;;7.30;99.90;;;;;;4451353;26;20021;-65
2024/04/25 05:38:02;;;;;;;8.18;2.08;;;7.40;99.90;;;;;;4448870;26;20008;-65
2024/04/25 05:40:03;;;;;;;6.93;2.20;;;7.40;99.90;;;;;;4417104;26;20412;-65
2024/04/25 05:42:05;;;;;;;6.55;2.10;;;7.40;99.90;;;;;;4444165;26;20037;-65
2024/04/25 05:44:06;;;;;;;5.22;2.15;;;7.40;99.90;;;;;;4447138;26;20008;-65
2024/04/25 05:46:06;;;;;;;6.90;2.05;;;7.40;99.90;;;;;;4448728;26;20514;-65
2024/04/25 05:48:07;;;;;;;8.93;2.42;;;7.50;99.90;;;;;;4452327;26;20020;-65
2024/04/25 05:50:08;;;;;;;6.68;1.77;;;7.50;99.90;;;;;;4444613;26;20501;-67
2024/04/25 05:52:12;;;;;;;5.72;1.70;;;7.50;99.90;;;;;;4450493;26;20015;-65
2024/04/25 05:54:13;;;;;;;5.03;1.67;;;7.50;99.90;;;;;;4448432;26;20023;-65
2024/04/25 05:56:13;;;;;;;7.50;2.00;;;7.60;99.90;;;;;;4412888;26;20857;-64
2024/04/25 05:58:15;;;;;;;3.90;1.70;;;7.60;99.90;;;;;;4422090;26;20009;-66
2024/04/25 06:00:16;;;;;;;7.22;2.20;;;7.60;99.90;;;;;;4461129;26;20004;-67
2024/04/25 06:02:16;;;;;;;7.28;2.30;;;7.70;99.90;;;;;;4457880;26;20448;-66
2024/04/25 06:04:17;;;;;;;6.05;2.03;;;7.70;99.90;;;;;;4459416;26;20570;-67
2024/04/25 06:06:18;;;;;;;5.00;1.70;;;7.70;99.90;;;;;;4454583;26;20016;-67
2024/04/25 06:08:18;;;;;;;5.38;1.42;;;7.80;99.90;;;;;;4448846;26;20076;-66
2024/04/25 06:10:21;;;;;;;11.63;2.17;;;7.90;99.90;;;;;;4472143;26;20359;-66
2024/04/25 06:12:22;;;;;;;;;;;7.90;99.90;;;;;;4452836;26;20355;-60
2024/04/25 06:14:23;;;;;;;6.40;2.17;;;8.00;99.90;;;;;;4442407;26;20455;-59
2024/04/25 06:16:24;;;;;;;6.53;2.28;;;8.00;99.90;;;;;;4434364;26;20004;-59
2024/04/25 06:18:24;;;;;;;8.30;2.55;;;8.00;99.90;;;;;;4442955;26;20019;-60
2024/04/25 06:20:25;;;;;;;9.27;2.80;;;8.10;99.90;;;;;;4423570;26;20008;-59
2024/04/25 06:22:25;;;;;;;9.15;2.60;;;8.20;99.90;;;;;;4435735;26;20352;-60
2024/04/25 06:24:26;;;;;;;7.53;2.80;;;8.20;99.90;;;;;;4439990;26;20015;-60
2024/04/25 06:26:27;;;;;;;8.15;2.42;;;8.20;99.90;;;;;;4438311;26;20030;-60
2024/04/25 06:28:28;;;;;;;6.47;2.63;;;8.20;99.90;;;;;;4378783;26;20092;-59
2024/04/25 06:30:28;;;;;;;15.48;3.25;;;8.30;99.90;;;;;;4439698;26;20016;-60
2024/04/25 06:32:29;;;;;;;7.75;2.95;;;8.40;99.90;;;;;;4445445;26;20340;-59
2024/04/25 06:34:30;;;;;;;5.15;3.00;;;8.40;99.90;;;;;;4443246;26;20008;-59
2024/04/25 06:36:32;;;;;;;8.50;3.70;;;8.50;99.90;;;;;;4443672;26;20384;-60
2024/04/25 06:38:33;;;;;;;11.50;3.55;;;8.50;99.90;;;;;;4442272;26;20004;-60
2024/04/25 06:40:34;;;;;;;9.07;3.75;;;8.60;99.90;;;;;;4444287;26;20000;-59
2024/04/25 06:42:34;;;;;;;6.35;3.05;;;8.60;99.90;;;;;;4443030;26;20333;-59
2024/04/25 06:44:35;;;;;;;9.10;3.70;;;8.60;99.90;;;;;;4414495;26;20047;-60
2024/04/25 06:46:35;;;;;;;9.43;4.80;;;8.70;99.90;;;;;;4442321;26;20008;-59
2024/04/25 06:48:36;;;;;;;7.78;4.15;;;8.80;99.90;;;;;;4436003;26;20488;-59
2024/04/25 06:50:42;;;;;;;11.13;4.50;;;8.90;99.90;;;;;;4439549;26;20004;-59
2024/04/25 06:52:42;;;;;;;8.82;4.38;;;8.90;99.90;;;;;;4412345;26;20005;-60
2024/04/25 06:54:43;;;;;;;8.85;3.97;;;9.10;99.90;;;;;;4441496;26;20022;-60
2024/04/25 06:56:43;;;;;;;6.70;4.03;;;9.10;99.90;;;;;;4443655;26;20052;-59
2024/04/25 06:58:44;;;;;;;11.32;5.05;;;9.20;99.90;;;;;;4447882;26;20025;-59
2024/04/25 07:00:45;;;;;;;10.05;4.70;;;9.10;99.90;;;;;;4442858;26;20012;-59
2024/04/25 07:02:45;;;;;;;15.68;5.68;;;9.20;99.90;;;;;;4443652;26;20012;-58
2024/04/25 07:04:46;;;;;;;9.35;4.68;;;9.00;99.90;;;;;;4442927;26;20357;-59
2024/04/25 07:06:46;;;;;;;11.60;4.85;;;9.10;99.90;;;;;;4442010;26;20015;-59
2024/04/25 07:08:47;;;;;;;8.68;4.55;;;9.10;99.90;;;;;;4435907;26;20035;-59
2024/04/25 07:10:49;;;;;;;10.10;5.10;;;9.10;99.90;;;;;;4442457;26;20090;-59
2024/04/25 07:12:49;;;;;;;9.88;4.80;;;9.00;99.90;;;;;;4442361;26;20017;-59
2024/04/25 07:14:50;;;;;;;8.55;5.57;;;9.10;99.90;;;;;;4444032;26;20023;-60
2024/04/25 07:16:51;;;;;;;9.20;4.93;;;9.10;99.90;;;;;;4444982;26;20464;-59
2024/04/25 07:18:51;;;;;;;10.40;4.78;;;9.10;99.90;;;;;;4441004;26;20079;-59
2024/04/25 07:20:52;;;;;;;7.20;4.35;;;9.10;99.90;;;;;;4442331;26;20020;-65
2024/04/25 07:22:52;;;;;;;7.65;4.75;;;9.20;99.90;;;;;;4441249;26;20195;-65
2024/04/25 07:24:53;;;;;;;10.45;5.00;;;9.30;99.90;;;;;;4438243;26;20365;-64
2024/04/25 07:26:56;;;;;;;6.57;4.30;;;9.30;99.90;;;;;;4438043;26;20024;-65
2024/04/25 07:28:56;;;;;;;10.18;5.65;;;9.40;99.90;;;;;;4444353;26;20079;-65
2024/04/25 07:30:57;;;;;;;8.10;4.97;;;9.40;99.90;;;;;;4440222;26;20020;-64
2024/04/25 07:32:58;;;;;;;7.32;4.80;;;9.40;99.90;;;;;;4440814;26;20031;-65
2024/04/25 07:34:58;;;;;;;8.65;4.57;;;9.50;99.90;;;;;;4439488;26;20040;-64
2024/04/25 07:36:59;;;;;;;8.18;4.70;;;9.50;99.90;;;;;;4441695;26;20808;-65
2024/04/25 07:39:01;;;;;;;8.43;4.63;;;9.70;99.90;;;;;;4438905;26;20484;-65
2024/04/25 07:41:01;;;;;;;9.15;4.75;;;9.80;99.90;;;;;;4445643;26;20012;-64
2024/04/25 07:43:04;;;;;;;8.13;5.22;;;9.90;99.90;;;;;;4441640;26;20039;-65
2024/04/25 07:45:05;;;;;;;8.85;4.88;;;10.00;99.90;;;;;;4440067;26;20011;-65
2024/04/25 07:47:07;;;;;;;11.33;4.60;;;10.10;99.90;;;;;;4442334;26;20004;-64
2024/04/25 07:49:10;;;;;;;8.93;4.50;;;10.20;99.90;;;;;;4443382;26;20012;-64
2024/04/25 07:51:11;;;;;;;7.78;4.38;;;10.30;99.90;;;;;;4440260;26;20008;-64
2024/04/25 07:53:11;;;;;;;14.35;4.88;;;10.40;99.90;;;;;;4432903;26;20510;-64
2024/04/25 07:55:12;;;;;;;8.40;4.25;;;10.50;99.90;;;;;;4441586;26;20340;-65
2024/04/25 07:57:13;;;;;;;7.15;3.90;;;10.50;99.90;;;;;;4444444;26;20096;-65
2024/04/25 07:59:14;;;;;;;8.60;3.95;;;10.60;99.90;;;;;;4403026;26;20012;-65
2024/04/25 08:01:18;;;;;;;9.75;3.80;;;10.60;99.90;;;;;;4439999;26;20000;-65
2024/04/25 08:03:22;;;;;;;12.65;3.58;;;10.60;99.90;;;;;;4444290;26;20008;-64
2024/04/25 08:05:23;;;;;;;8.27;3.38;;;10.60;99.90;;;;;;4442365;26;20007;-64
2024/04/25 08:07:23;;;;;;;10.25;3.50;;;10.70;99.90;;;;;;4443379;26;20027;-64
2024/04/25 08:09:24;;;;;;;8.02;3.60;;;10.70;99.90;;;;;;4446297;26;20008;-64
2024/04/25 08:11:25;;;;;;;7.32;3.00;;;10.60;99.90;;;;;;4439021;26;20012;-66
2024/04/25 08:13:26;;;;;;;12.20;4.05;;;10.60;99.90;;;;;;4441097;26;20000;-64
2024/04/25 08:15:27;;;;;;;9.40;3.42;;;10.70;99.90;;;;;;4440580;26;20004;-65
2024/04/25 08:17:28;;;;;;;6.22;2.42;;;10.60;99.90;;;;;;4441679;26;20011;-64
2024/04/25 08:19:30;;;;;;;10.07;2.92;;;10.60;99.90;;;;;;4414681;26;20550;-65
2024/04/25 08:21:31;;;;;;;9.25;3.30;;;10.60;99.90;;;;;;4442220;26;20031;-64
2024/04/25 08:23:31;;;;;;;8.50;3.42;;;10.60;99.90;;;;;;4404923;26;20005;-64
2024/04/25 08:25:32;;;;;;;10.35;3.47;;;10.60;99.90;;;;;;4384230;26;20013;-65
2024/04/25 08:27:33;;;;;;;5.65;3.10;;;10.60;99.90;;;;;;4436909;26;20348;-65
2024/04/25 08:29:34;;;;;;;8.50;3.33;;;10.60;99.90;;;;;;4413999;26;20032;-64
2024/04/25 08:31:35;;;;;;;12.48;3.67;;;10.60;99.90;;;;;;4411962;26;20489;-63
2024/04/25 08:33:36;;;;;;;6.43;3.22;;;10.60;99.90;;;;;;4441161;26;20041;-62
2024/04/25 08:35:38;;;;;;;8.70;3.85;;;10.60;99.90;;;;;;4410843;26;20232;-62
2024/04/25 08:37:39;;;;;;;9.73;3.30;;;10.40;99.90;;;;;;4442673;26;20015;-62
2024/04/25 08:39:40;;;;;;;11.98;4.43;;;10.40;99.90;;;;;;4442076;26;20036;-62
2024/04/25 08:41:43;;;;;;;11.07;4.15;;;10.40;99.90;;;;;;4429895;26;20375;-65
2024/04/25 08:43:45;;;;;;;13.38;4.40;;;10.30;99.90;;;;;;4444325;26;20016;-62
2024/04/25 08:45:46;;;;;;;10.32;3.92;;;10.20;99.90;;;;;;4413438;26;20469;-62
2024/04/25 08:47:50;;;;;;;10.05;4.10;;;10.20;99.90;;;;;;4441054;26;20026;-62
2024/04/25 08:49:54;;;;;;;9.10;4.07;;;10.20;99.90;;;;;;4443393;26;20007;-62
2024/04/25 08:51:56;;;;;;;10.60;3.50;;;10.20;99.90;;;;;;4410547;26;20025;-62
2024/04/25 08:54:01;;;;;;;8.40;3.05;;;10.30;99.90;;;;;;4440189;26;20012;-62
2024/04/25 08:56:02;;;;;;;7.25;3.50;;;10.30;99.90;;;;;;4440212;26;20517;-62
2024/04/25 08:58:05;;;;;;;7.45;3.25;;;10.40;99.90;;;;;;4440210;26;20487;-62
2024/04/25 09:00:06;;;;;;;6.10;3.15;;;10.50;99.90;;;;;;4437382;26;20036;-62
2024/04/25 09:02:13;;;;;;;6.60;3.13;;;10.50;99.90;;;;;;4444877;26;20008;-62
2024/04/25 09:04:19;;;;;;;8.05;3.08;;;10.60;99.90;;;;;;4434896;26;20110;-62
2024/04/25 09:06:21;;;;;;;18.73;3.90;;;10.60;99.90;;;;;;4442065;26;20051;-62
2024/04/25 09:08:23;;;;;;;6.88;2.40;;;10.70;99.90;;;;;;4434047;26;20105;-61
2024/04/25 09:10:24;;;;;;;4.90;2.20;;;10.70;99.90;;;;;;4405119;26;20009;-62
2024/04/25 09:12:31;;;;;;;8.93;2.78;;;10.70;99.90;;;;;;4424824;26;20020;-62
2024/04/25 09:14:32;;;;;;;6.82;2.20;;;10.80;99.90;;;;;;4430791;26;20008;-62
2024/04/25 09:16:36;;;;;;;7.60;2.75;;;10.80;99.90;;;;;;4440917;26;20019;-62
2024/04/25 09:18:37;;;;;;;6.22;2.10;;;10.70;99.90;;;;;;4444795;26;20030;-61
2024/04/25 09:20:38;;;;;;;5.13;2.03;;;10.80;99.90;;;;;;4436982;26;20027;-62
2024/04/25 09:22:39;;;;;;;4.53;2.28;;;10.70;99.90;;;;;;4440396;26;20360;-62
2024/04/25 09:24:41;;;;;;;7.45;2.40;;;10.70;99.90;;;;;;4440273;26;20012;-62
2024/04/25 09:26:41;;;;;;;11.48;2.55;;;10.70;99.90;;;;;;4442839;26;20504;-66
2024/04/25 09:28:43;;;;;;;8.70;2.22;;;10.80;99.90;;;;;;4443028;26;20016;-63
2024/04/25 09:30:44;;;;;;;12.57;3.00;;;10.90;99.90;;;;;;4439898;26;20012;-61
2024/04/25 09:32:45;;;;;;;10.77;2.92;;;11.10;99.90;;;;;;4439713;26;20853;-62
2024/04/25 09:34:48;;;;;;;15.27;3.15;;;11.10;99.90;;;;;;4441515;26;20558;-61
2024/04/25 09:36:53;;;;;;;6.45;2.40;;;11.10;99.90;;;;;;4440021;26;20034;-63
2024/04/25 09:38:54;;;;;;;7.47;2.45;;;11.00;99.90;;;;;;4413251;26;20709;-62
2024/04/25 09:40:57;;;;;;;7.80;2.10;;;10.90;99.90;;;;;;4437986;26;20023;-64
2024/04/25 09:42:57;;;;;;;10.40;2.90;;;11.00;99.90;;;;;;4446195;26;20030;-64
2024/04/25 09:45:00;;;;;;;6.07;2.13;;;11.00;99.90;;;;;;4444557;26;20016;-64
2024/04/25 09:47:02;;;;;;;;;;;10.80;99.90;;;;;;4442036;26;20098;-64
2024/04/25 09:49:05;;;;;;;;;;;10.80;99.90;;;;;;4413506;26;19933;-65
2024/04/25 09:51:13;;;;;;;;;;;10.90;99.90;;;;;;4436214;26;19933;-65
2024/04/25 09:53:23;;;;;;;;;;;10.90;99.90;;;;;;4441896;26;20032;-64
2024/04/25 09:55:25;;;;;;;;;;;11.00;99.90;;;;;;4442869;26;19976;-64
2024/04/25 09:57:27;;;;;;;;;;;11.00;99.90;;;;;;4445108;26;20118;-64
2024/04/25 09:59:30;;;;;;;;;;;11.00;99.90;;;;;;4444023;26;19933;-64
2024/04/25 10:01:32;;;;;;;;;;;11.00;99.90;;;;;;4441640;26;20367;-65
2024/04/25 10:03:33;;;;;;;;;;;11.10;99.90;;;;;;4444219;26;19998;-64
2024/04/25 10:05:34;;;;;;;;;;;11.20;99.90;;;;;;4441728;26;20605;-64
2024/04/25 10:07:35;;;;;;;;;;;11.10;99.90;;;;;;4442931;26;20503;-64
2024/04/25 10:09:36;;;;;;;;;;;11.10;99.90;;;;;;4441419;26;20018;-65
2024/04/25 10:11:37;;;;;;;;;;;11.10;99.90;;;;;;4445347;26;20319;-65
2024/04/25 10:13:46;;;;;;;;;;;11.00;99.90;;;;;;4441877;26;19937;-65
2024/04/25 10:15:48;;;;;;;;;;;10.90;99.90;;;;;;4410257;26;20391;-65
2024/04/25 10:17:50;;;;;;;;;;;10.90;99.90;;;;;;4441071;26;21121;-64
2024/04/25 10:19:51;;;;;;;;;;;11.00;99.90;;;;;;4439557;26;19969;-65
2024/04/25 10:21:51;;;;;;;;;;;11.00;99.90;;;;;;4406604;26;19934;-65
2024/04/25 10:24:03;;;;;;;;;;;11.10;99.90;;;;;;4398315;26;19941;-65
2024/04/25 10:26:14;;;;;;;;;;;11.10;99.90;;;;;;4436938;26;20361;-65
2024/04/25 10:28:18;;;;;;;;;;;11.10;99.90;;;;;;4358295;26;19934;-65
2024/04/25 10:30:18;;;;;;;;;;;11.10;99.90;;;;;;4425859;26;19976;-65
2024/04/25 10:32:19;;;;;;;;;;;11.10;99.90;;;;;;4440600;26;19933;-65
2024/04/25 10:34:19;;;;;;;;;;;11.10;99.90;;;;;;4430682;26;20007;-65
2024/04/25 10:36:20;;;;;;;;;;;11.20;99.90;;;;;;4410809;26;19940;-65
2024/04/25 10:38:21;;;;;;;;;;;11.20;99.90;;;;;;4445271;26;19937;-65
2024/04/25 10:40:22;;;;;;;;;;;11.30;99.90;;;;;;4441434;26;19940;-65
2024/04/25 10:42:25;;;;;;;;;;;11.30;99.90;;;;;;4441075;26;19933;-64
2024/04/25 10:44:29;;;;;;;;;;;11.20;99.90;;;;;;4412988;26;19933;-65
2024/04/25 10:46:29;;;;;;;;;;;11.40;99.90;;;;;;4441002;26;19941;-67